sensor_id;sensor_type;location;lat;lon;timestamp;temperature;humidity
56300;DHT22;42209;6.376;-10.782;2023-03-14T00:01:16;29.00;47.70
56300;DHT22;42209;6.376;-10.782;2023-03-14T00:03:45;29.00;47.80
56300;DHT22;42209;6.376;-10.782;2023-03-14T00:06:14;29.00;47.90
56300;DHT22;42209;6.376;-10.782;2023-03-14T00:08:43;29.00;47.80
56300;DHT22;42209;6.376;-10.782;2023-03-14T00:11:14;29.00;47.80
56300;DHT22;42209;6.376;-10.782;2023-03-14T00:13:43;29.00;48.00
56300;DHT22;42209;6.376;-10.782;2023-03-14T00:16:12;29.00;48.10
56300;DHT22;42209;6.376;-10.782;2023-03-14T00:18:41;29.00;48.00
56300;DHT22;42209;6.376;-10.782;2023-03-14T00:21:10;29.00;47.80
56300;DHT22;42209;6.376;-10.782;2023-03-14T00:23:40;29.00;47.50
56300;DHT22;42209;6.376;-10.782;2023-03-14T00:26:11;29.00;47.80
56300;DHT22;42209;6.376;-10.782;2023-03-14T00:28:41;29.00;47.90
56300;DHT22;42209;6.376;-10.782;2023-03-14T00:31:13;29.00;48.20
56300;DHT22;42209;6.376;-10.782;2023-03-14T00:33:43;29.00;47.50
56300;DHT22;42209;6.376;-10.782;2023-03-14T00:36:16;29.00;47.70
56300;DHT22;42209;6.376;-10.782;2023-03-14T00:38:46;29.00;47.80
56300;DHT22;42209;6.376;-10.782;2023-03-14T00:41:21;29.00;47.90
56300;DHT22;42209;6.376;-10.782;2023-03-14T00:43:50;29.00;47.80
56300;DHT22;42209;6.376;-10.782;2023-03-14T00:46:19;29.00;48.10
56300;DHT22;42209;6.376;-10.782;2023-03-14T00:48:47;29.00;48.20
56300;DHT22;42209;6.376;-10.782;2023-03-14T00:51:16;29.00;48.20
56300;DHT22;42209;6.376;-10.782;2023-03-14T00:53:44;29.00;48.00
56300;DHT22;42209;6.376;-10.782;2023-03-14T00:56:13;29.00;48.30
56300;DHT22;42209;6.376;-10.782;2023-03-14T00:58:42;29.00;48.40
56300;DHT22;42209;6.376;-10.782;2023-03-14T01:01:16;29.00;49.00
56300;DHT22;42209;6.376;-10.782;2023-03-14T01:03:45;29.00;48.40
56300;DHT22;42209;6.376;-10.782;2023-03-14T01:06:17;29.00;48.50
56300;DHT22;42209;6.376;-10.782;2023-03-14T01:08:47;29.00;48.30
56300;DHT22;42209;6.376;-10.782;2023-03-14T01:11:24;29.00;48.40
56300;DHT22;42209;6.376;-10.782;2023-03-14T01:13:53;29.00;48.30
56300;DHT22;42209;6.376;-10.782;2023-03-14T01:16:25;28.90;48.50
56300;DHT22;42209;6.376;-10.782;2023-03-14T01:18:53;29.00;48.80
56300;DHT22;42209;6.376;-10.782;2023-03-14T01:21:24;29.00;48.40
56300;DHT22;42209;6.376;-10.782;2023-03-14T01:23:55;29.00;48.60
56300;DHT22;42209;6.376;-10.782;2023-03-14T01:26:25;29.00;48.80
56300;DHT22;42209;6.376;-10.782;2023-03-14T01:28:55;28.90;48.70
56300;DHT22;42209;6.376;-10.782;2023-03-14T01:31:24;29.00;49.00
56300;DHT22;42209;6.376;-10.782;2023-03-14T01:33:53;29.00;49.00
56300;DHT22;42209;6.376;-10.782;2023-03-14T01:36:21;29.00;49.60
56300;DHT22;42209;6.376;-10.782;2023-03-14T01:38:50;29.00;49.30
56300;DHT22;42209;6.376;-10.782;2023-03-14T01:41:20;28.90;49.20
56300;DHT22;42209;6.376;-10.782;2023-03-14T01:43:49;28.90;48.80
56300;DHT22;42209;6.376;-10.782;2023-03-14T01:49:03;28.90;49.80
56300;DHT22;42209;6.376;-10.782;2023-03-14T01:54:42;28.90;50.00
56300;DHT22;42209;6.376;-10.782;2023-03-14T01:57:33;28.90;50.20
56300;DHT22;42209;6.376;-10.782;2023-03-14T02:00:13;28.90;50.60
56300;DHT22;42209;6.376;-10.782;2023-03-14T02:02:46;28.90;50.30
56300;DHT22;42209;6.376;-10.782;2023-03-14T02:05:25;28.90;49.80
56300;DHT22;42209;6.376;-10.782;2023-03-14T02:08:02;28.90;50.00
56300;DHT22;42209;6.376;-10.782;2023-03-14T02:10:44;28.90;50.20
56300;DHT22;42209;6.376;-10.782;2023-03-14T02:13:15;28.90;50.00
56300;DHT22;42209;6.376;-10.782;2023-03-14T02:15:51;28.90;49.60
56300;DHT22;42209;6.376;-10.782;2023-03-14T02:18:43;28.90;49.90
56300;DHT22;42209;6.376;-10.782;2023-03-14T02:22:05;28.90;50.00
56300;DHT22;42209;6.376;-10.782;2023-03-14T02:27:44;28.80;49.80
56300;DHT22;42209;6.376;-10.782;2023-03-14T02:30:25;28.90;49.80
56300;DHT22;42209;6.376;-10.782;2023-03-14T02:33:18;28.90;50.00
56300;DHT22;42209;6.376;-10.782;2023-03-14T02:35:52;28.90;49.60
56300;DHT22;42209;6.376;-10.782;2023-03-14T02:38:37;28.80;49.30
56300;DHT22;42209;6.376;-10.782;2023-03-14T02:41:08;28.90;49.40
56300;DHT22;42209;6.376;-10.782;2023-03-14T02:43:43;28.90;49.70
56300;DHT22;42209;6.376;-10.782;2023-03-14T02:46:16;28.90;50.00
56300;DHT22;42209;6.376;-10.782;2023-03-14T02:48:56;28.90;49.90
56300;DHT22;42209;6.376;-10.782;2023-03-14T02:51:26;28.90;49.80
56300;DHT22;42209;6.376;-10.782;2023-03-14T02:53:55;28.80;50.00
56300;DHT22;42209;6.376;-10.782;2023-03-14T02:56:24;28.90;50.20
56300;DHT22;42209;6.376;-10.782;2023-03-14T02:58:53;28.80;49.30
56300;DHT22;42209;6.376;-10.782;2023-03-14T03:01:30;28.90;50.40
56300;DHT22;42209;6.376;-10.782;2023-03-14T03:03:58;28.80;50.20
56300;DHT22;42209;6.376;-10.782;2023-03-14T03:06:27;28.80;50.30
56300;DHT22;42209;6.376;-10.782;2023-03-14T03:08:55;28.80;50.10
56300;DHT22;42209;6.376;-10.782;2023-03-14T03:11:23;28.80;50.30
56300;DHT22;42209;6.376;-10.782;2023-03-14T03:13:52;28.80;50.30
56300;DHT22;42209;6.376;-10.782;2023-03-14T03:16:21;28.80;50.30
56300;DHT22;42209;6.376;-10.782;2023-03-14T03:18:49;28.80;49.90
56300;DHT22;42209;6.376;-10.782;2023-03-14T03:21:17;28.80;50.10
56300;DHT22;42209;6.376;-10.782;2023-03-14T03:23:45;28.80;49.80
56300;DHT22;42209;6.376;-10.782;2023-03-14T03:26:13;28.80;50.10
56300;DHT22;42209;6.376;-10.782;2023-03-14T03:28:41;28.80;50.20
56300;DHT22;42209;6.376;-10.782;2023-03-14T03:31:12;28.80;50.30
56300;DHT22;42209;6.376;-10.782;2023-03-14T03:33:41;28.80;50.00
56300;DHT22;42209;6.376;-10.782;2023-03-14T03:36:09;28.80;50.00
56300;DHT22;42209;6.376;-10.782;2023-03-14T03:38:39;28.80;50.10
56300;DHT22;42209;6.376;-10.782;2023-03-14T03:41:08;28.80;50.70
56300;DHT22;42209;6.376;-10.782;2023-03-14T03:43:36;28.80;50.60
56300;DHT22;42209;6.376;-10.782;2023-03-14T03:46:08;28.80;50.50
56300;DHT22;42209;6.376;-10.782;2023-03-14T03:48:36;28.80;50.50
56300;DHT22;42209;6.376;-10.782;2023-03-14T03:51:06;28.80;50.20
56300;DHT22;42209;6.376;-10.782;2023-03-14T03:53:36;28.80;50.30
56300;DHT22;42209;6.376;-10.782;2023-03-14T03:56:09;28.70;50.60
56300;DHT22;42209;6.376;-10.782;2023-03-14T03:58:38;28.80;50.60
56300;DHT22;42209;6.376;-10.782;2023-03-14T04:01:07;28.70;50.20
56300;DHT22;42209;6.376;-10.782;2023-03-14T04:03:36;28.70;50.20
56300;DHT22;42209;6.376;-10.782;2023-03-14T04:06:11;28.70;50.20
56300;DHT22;42209;6.376;-10.782;2023-03-14T04:08:42;28.80;50.60
56300;DHT22;42209;6.376;-10.782;2023-03-14T04:11:40;28.70;51.00
56300;DHT22;42209;6.376;-10.782;2023-03-14T04:14:20;28.80;50.50
56300;DHT22;42209;6.376;-10.782;2023-03-14T04:16:58;28.80;50.40
56300;DHT22;42209;6.376;-10.782;2023-03-14T04:19:26;28.80;50.10
56300;DHT22;42209;6.376;-10.782;2023-03-14T04:21:56;28.70;49.90
56300;DHT22;42209;6.376;-10.782;2023-03-14T04:24:27;28.70;49.90
56300;DHT22;42209;6.376;-10.782;2023-03-14T04:26:57;28.70;50.00
56300;DHT22;42209;6.376;-10.782;2023-03-14T04:29:25;28.70;50.10
56300;DHT22;42209;6.376;-10.782;2023-03-14T04:31:54;28.70;49.90
56300;DHT22;42209;6.376;-10.782;2023-03-14T04:34:22;28.70;49.80
56300;DHT22;42209;6.376;-10.782;2023-03-14T04:36:54;28.70;50.10
56300;DHT22;42209;6.376;-10.782;2023-03-14T04:39:32;28.70;49.90
56300;DHT22;42209;6.376;-10.782;2023-03-14T04:42:16;28.70;50.20
56300;DHT22;42209;6.376;-10.782;2023-03-14T04:44:44;28.70;50.40
56300;DHT22;42209;6.376;-10.782;2023-03-14T04:47:13;28.70;50.50
56300;DHT22;42209;6.376;-10.782;2023-03-14T04:49:42;28.70;50.20
56300;DHT22;42209;6.376;-10.782;2023-03-14T04:52:13;28.60;50.60
56300;DHT22;42209;6.376;-10.782;2023-03-14T04:54:42;28.70;50.50
56300;DHT22;42209;6.376;-10.782;2023-03-14T04:57:11;28.70;50.60
56300;DHT22;42209;6.376;-10.782;2023-03-14T04:59:40;28.70;51.20
56300;DHT22;42209;6.376;-10.782;2023-03-14T05:02:31;28.60;50.20
56300;DHT22;42209;6.376;-10.782;2023-03-14T05:05:28;28.70;50.70
56300;DHT22;42209;6.376;-10.782;2023-03-14T05:08:12;28.70;50.40
56300;DHT22;42209;6.376;-10.782;2023-03-14T05:10:59;28.70;50.60
56300;DHT22;42209;6.376;-10.782;2023-03-14T05:13:50;28.70;50.50
56300;DHT22;42209;6.376;-10.782;2023-03-14T05:16:33;28.70;50.70
56300;DHT22;42209;6.376;-10.782;2023-03-14T05:19:11;28.70;50.50
56300;DHT22;42209;6.376;-10.782;2023-03-14T05:21:59;28.60;50.60
56300;DHT22;42209;6.376;-10.782;2023-03-14T05:24:47;28.60;50.40
56300;DHT22;42209;6.376;-10.782;2023-03-14T05:27:38;28.60;50.40
56300;DHT22;42209;6.376;-10.782;2023-03-14T05:30:24;28.60;50.70
56300;DHT22;42209;6.376;-10.782;2023-03-14T05:33:21;28.60;50.60
56300;DHT22;42209;6.376;-10.782;2023-03-14T05:36:07;28.60;50.60
56300;DHT22;42209;6.376;-10.782;2023-03-14T05:38:42;28.60;50.70
56300;DHT22;42209;6.376;-10.782;2023-03-14T05:41:36;28.60;50.70
56300;DHT22;42209;6.376;-10.782;2023-03-14T05:44:42;28.60;50.60
56300;DHT22;42209;6.376;-10.782;2023-03-14T05:47:20;28.60;50.60
56300;DHT22;42209;6.376;-10.782;2023-03-14T05:50:20;28.60;50.90
56300;DHT22;42209;6.376;-10.782;2023-03-14T05:53:08;28.60;51.00
56300;DHT22;42209;6.376;-10.782;2023-03-14T05:55:40;28.60;50.90
56300;DHT22;42209;6.376;-10.782;2023-03-14T05:58:35;28.60;51.10
56300;DHT22;42209;6.376;-10.782;2023-03-14T06:01:21;28.60;51.10
56300;DHT22;42209;6.376;-10.782;2023-03-14T06:04:10;28.60;51.30
56300;DHT22;42209;6.376;-10.782;2023-03-14T06:06:38;28.60;51.10
56300;DHT22;42209;6.376;-10.782;2023-03-14T06:09:08;28.60;51.30
56300;DHT22;42209;6.376;-10.782;2023-03-14T06:11:41;28.50;51.10
56300;DHT22;42209;6.376;-10.782;2023-03-14T06:27:19;28.50;50.60
56300;DHT22;42209;6.376;-10.782;2023-03-14T06:29:52;28.70;51.10
56300;DHT22;42209;6.376;-10.782;2023-03-14T06:32:20;28.70;51.00
56300;DHT22;42209;6.376;-10.782;2023-03-14T06:34:52;28.80;50.90
56300;DHT22;42209;6.376;-10.782;2023-03-14T06:37:20;28.70;50.70
56300;DHT22;42209;6.376;-10.782;2023-03-14T06:39:48;28.70;50.80
56300;DHT22;42209;6.376;-10.782;2023-03-14T06:42:42;28.70;50.90
56300;DHT22;42209;6.376;-10.782;2023-03-14T06:45:12;28.70;51.00
56300;DHT22;42209;6.376;-10.782;2023-03-14T06:47:41;28.60;51.20
56300;DHT22;42209;6.376;-10.782;2023-03-14T06:50:11;28.60;51.30
56300;DHT22;42209;6.376;-10.782;2023-03-14T06:52:40;28.60;51.30
56300;DHT22;42209;6.376;-10.782;2023-03-14T06:55:08;28.60;51.40
56300;DHT22;42209;6.376;-10.782;2023-03-14T06:57:37;28.60;51.40
56300;DHT22;42209;6.376;-10.782;2023-03-14T07:00:07;28.60;51.90
56300;DHT22;42209;6.376;-10.782;2023-03-14T07:02:38;28.60;51.90
56300;DHT22;42209;6.376;-10.782;2023-03-14T07:05:22;28.50;51.80
56300;DHT22;42209;6.376;-10.782;2023-03-14T07:07:51;28.50;52.00
56300;DHT22;42209;6.376;-10.782;2023-03-14T07:10:19;28.50;51.90
56300;DHT22;42209;6.376;-10.782;2023-03-14T07:12:49;28.50;52.30
56300;DHT22;42209;6.376;-10.782;2023-03-14T07:15:17;28.50;52.50
56300;DHT22;42209;6.376;-10.782;2023-03-14T07:17:51;28.50;52.80
56300;DHT22;42209;6.376;-10.782;2023-03-14T07:20:22;28.50;52.60
56300;DHT22;42209;6.376;-10.782;2023-03-14T07:22:50;28.50;52.70
56300;DHT22;42209;6.376;-10.782;2023-03-14T07:25:30;28.50;52.60
56300;DHT22;42209;6.376;-10.782;2023-03-14T07:27:58;28.50;52.40
56300;DHT22;42209;6.376;-10.782;2023-03-14T07:30:27;28.50;52.70
56300;DHT22;42209;6.376;-10.782;2023-03-14T07:32:57;28.50;53.00
56300;DHT22;42209;6.376;-10.782;2023-03-14T07:35:26;28.40;53.20
56300;DHT22;42209;6.376;-10.782;2023-03-14T07:37:54;28.50;53.60
56300;DHT22;42209;6.376;-10.782;2023-03-14T07:40:29;28.40;53.20
56300;DHT22;42209;6.376;-10.782;2023-03-14T07:42:58;28.40;53.20
56300;DHT22;42209;6.376;-10.782;2023-03-14T07:45:36;28.40;53.10
56300;DHT22;42209;6.376;-10.782;2023-03-14T07:48:09;28.40;53.30
56300;DHT22;42209;6.376;-10.782;2023-03-14T07:50:37;28.40;53.20
56300;DHT22;42209;6.376;-10.782;2023-03-14T07:53:05;28.40;53.60
56300;DHT22;42209;6.376;-10.782;2023-03-14T07:55:34;28.40;53.40
56300;DHT22;42209;6.376;-10.782;2023-03-14T07:58:02;28.40;53.30
56300;DHT22;42209;6.376;-10.782;2023-03-14T08:00:30;28.40;54.00
56300;DHT22;42209;6.376;-10.782;2023-03-14T08:02:58;28.40;53.90
56300;DHT22;42209;6.376;-10.782;2023-03-14T08:05:27;28.40;53.90
56300;DHT22;42209;6.376;-10.782;2023-03-14T08:07:58;28.40;54.60
56300;DHT22;42209;6.376;-10.782;2023-03-14T08:10:26;28.40;54.50
56300;DHT22;42209;6.376;-10.782;2023-03-14T08:12:56;28.40;54.50
56300;DHT22;42209;6.376;-10.782;2023-03-14T08:15:25;28.40;54.60
56300;DHT22;42209;6.376;-10.782;2023-03-14T08:17:53;28.40;54.80
56300;DHT22;42209;6.376;-10.782;2023-03-14T08:20:24;28.40;54.50
56300;DHT22;42209;6.376;-10.782;2023-03-14T08:22:59;28.40;54.30
56300;DHT22;42209;6.376;-10.782;2023-03-14T08:25:30;28.40;54.20
56300;DHT22;42209;6.376;-10.782;2023-03-14T08:27:58;28.40;54.30
56300;DHT22;42209;6.376;-10.782;2023-03-14T08:30:27;28.30;54.40
56300;DHT22;42209;6.376;-10.782;2023-03-14T08:32:57;28.40;54.40
56300;DHT22;42209;6.376;-10.782;2023-03-14T08:35:26;28.30;54.70
56300;DHT22;42209;6.376;-10.782;2023-03-14T08:37:54;28.30;54.30
56300;DHT22;42209;6.376;-10.782;2023-03-14T08:40:22;28.40;54.20
56300;DHT22;42209;6.376;-10.782;2023-03-14T08:42:51;28.40;54.50
56300;DHT22;42209;6.376;-10.782;2023-03-14T08:45:19;28.40;54.60
56300;DHT22;42209;6.376;-10.782;2023-03-14T08:47:47;28.40;54.80
56300;DHT22;42209;6.376;-10.782;2023-03-14T08:50:15;28.40;54.80
56300;DHT22;42209;6.376;-10.782;2023-03-14T08:52:43;28.40;54.50
56300;DHT22;42209;6.376;-10.782;2023-03-14T08:55:12;28.40;54.30
56300;DHT22;42209;6.376;-10.782;2023-03-14T08:57:40;28.40;54.30
56300;DHT22;42209;6.376;-10.782;2023-03-14T09:00:09;28.40;54.60
56300;DHT22;42209;6.376;-10.782;2023-03-14T09:02:37;28.40;54.60
56300;DHT22;42209;6.376;-10.782;2023-03-14T09:05:14;28.30;54.20
56300;DHT22;42209;6.376;-10.782;2023-03-14T09:07:42;28.30;54.60
56300;DHT22;42209;6.376;-10.782;2023-03-14T09:10:11;28.30;54.40
56300;DHT22;42209;6.376;-10.782;2023-03-14T09:12:39;28.30;53.90
56300;DHT22;42209;6.376;-10.782;2023-03-14T09:15:07;28.30;53.80
56300;DHT22;42209;6.376;-10.782;2023-03-14T09:17:36;28.30;53.00
56300;DHT22;42209;6.376;-10.782;2023-03-14T09:20:04;28.30;52.50
56300;DHT22;42209;6.376;-10.782;2023-03-14T09:22:35;28.30;52.60
56300;DHT22;42209;6.376;-10.782;2023-03-14T09:25:03;28.30;52.60
56300;DHT22;42209;6.376;-10.782;2023-03-14T09:27:32;28.30;52.20
56300;DHT22;42209;6.376;-10.782;2023-03-14T09:30:00;28.30;52.30
56300;DHT22;42209;6.376;-10.782;2023-03-14T09:32:30;28.30;51.90
56300;DHT22;42209;6.376;-10.782;2023-03-14T09:34:59;28.30;51.90
56300;DHT22;42209;6.376;-10.782;2023-03-14T09:37:27;28.30;51.40
56300;DHT22;42209;6.376;-10.782;2023-03-14T09:39:55;28.30;51.30
56300;DHT22;42209;6.376;-10.782;2023-03-14T09:42:26;28.30;51.00
56300;DHT22;42209;6.376;-10.782;2023-03-14T09:45:04;28.30;51.10
56300;DHT22;42209;6.376;-10.782;2023-03-14T09:47:33;28.30;51.10
56300;DHT22;42209;6.376;-10.782;2023-03-14T09:50:14;28.30;51.30
56300;DHT22;42209;6.376;-10.782;2023-03-14T09:52:48;28.30;51.30
56300;DHT22;42209;6.376;-10.782;2023-03-14T09:55:20;28.30;51.00
56300;DHT22;42209;6.376;-10.782;2023-03-14T09:57:54;28.30;51.00
56300;DHT22;42209;6.376;-10.782;2023-03-14T10:00:28;28.30;50.80
56300;DHT22;42209;6.376;-10.782;2023-03-14T10:05:41;28.30;50.70
56300;DHT22;42209;6.376;-10.782;2023-03-14T10:08:13;28.30;50.70
56300;DHT22;42209;6.376;-10.782;2023-03-14T10:10:42;28.30;50.70
56300;DHT22;42209;6.376;-10.782;2023-03-14T10:13:20;28.30;50.70
56300;DHT22;42209;6.376;-10.782;2023-03-14T10:15:53;28.30;50.50
56300;DHT22;42209;6.376;-10.782;2023-03-14T10:18:23;28.30;50.50
56300;DHT22;42209;6.376;-10.782;2023-03-14T10:23:45;28.30;50.50
56300;DHT22;42209;6.376;-10.782;2023-03-14T10:26:18;28.30;50.50
56300;DHT22;42209;6.376;-10.782;2023-03-14T10:29:12;28.30;50.50
56300;DHT22;42209;6.376;-10.782;2023-03-14T10:32:10;28.30;50.40
56300;DHT22;42209;6.376;-10.782;2023-03-14T10:35:08;28.40;50.40
56300;DHT22;42209;6.376;-10.782;2023-03-14T10:37:52;28.30;50.40
56300;DHT22;42209;6.376;-10.782;2023-03-14T10:40:26;28.30;50.40
56300;DHT22;42209;6.376;-10.782;2023-03-14T10:42:55;28.30;50.40
56300;DHT22;42209;6.376;-10.782;2023-03-14T10:47:59;28.40;50.50
56300;DHT22;42209;6.376;-10.782;2023-03-14T10:50:33;28.40;50.50
56300;DHT22;42209;6.376;-10.782;2023-03-14T10:53:03;28.30;50.30
56300;DHT22;42209;6.376;-10.782;2023-03-14T10:55:42;28.30;50.10
56300;DHT22;42209;6.376;-10.782;2023-03-14T10:58:28;28.30;50.00
56300;DHT22;42209;6.376;-10.782;2023-03-14T11:09:52;28.40;50.20
56300;DHT22;42209;6.376;-10.782;2023-03-14T11:18:35;28.40;50.00
56300;DHT22;42209;6.376;-10.782;2023-03-14T11:21:22;28.40;50.20
56300;DHT22;42209;6.376;-10.782;2023-03-14T11:24:08;28.40;50.30
56300;DHT22;42209;6.376;-10.782;2023-03-14T11:29:53;28.40;50.50
56300;DHT22;42209;6.376;-10.782;2023-03-14T11:32:36;28.40;50.40
56300;DHT22;42209;6.376;-10.782;2023-03-14T11:35:19;28.40;50.40
56300;DHT22;42209;6.376;-10.782;2023-03-14T11:38:00;28.40;50.40
56300;DHT22;42209;6.376;-10.782;2023-03-14T11:40:31;28.40;50.40
56300;DHT22;42209;6.376;-10.782;2023-03-14T11:43:14;28.40;50.40
56300;DHT22;42209;6.376;-10.782;2023-03-14T11:45:44;28.40;50.40
56300;DHT22;42209;6.376;-10.782;2023-03-14T11:48:43;28.40;50.60
56300;DHT22;42209;6.376;-10.782;2023-03-14T11:51:39;28.40;50.40
56300;DHT22;42209;6.376;-10.782;2023-03-14T11:54:16;28.40;50.30
56300;DHT22;42209;6.376;-10.782;2023-03-14T11:56:53;28.40;50.30
56300;DHT22;42209;6.376;-10.782;2023-03-14T11:59:45;28.40;50.30
56300;DHT22;42209;6.376;-10.782;2023-03-14T12:10:53;28.50;50.10
56300;DHT22;42209;6.376;-10.782;2023-03-14T12:13:22;28.50;50.00
56300;DHT22;42209;6.376;-10.782;2023-03-14T12:16:00;28.50;50.00
56300;DHT22;42209;6.376;-10.782;2023-03-14T12:18:34;28.40;49.80
56300;DHT22;42209;6.376;-10.782;2023-03-14T12:21:06;28.50;49.70
56300;DHT22;42209;6.376;-10.782;2023-03-14T12:26:23;28.50;49.60
56300;DHT22;42209;6.376;-10.782;2023-03-14T12:34:25;28.50;49.50
56300;DHT22;42209;6.376;-10.782;2023-03-14T12:42:58;28.50;49.50
56300;DHT22;42209;6.376;-10.782;2023-03-14T12:45:33;28.50;49.40
56300;DHT22;42209;6.376;-10.782;2023-03-14T12:48:14;28.50;49.10
56300;DHT22;42209;6.376;-10.782;2023-03-14T12:50:54;28.50;49.00
56300;DHT22;42209;6.376;-10.782;2023-03-14T12:56:28;28.50;49.00
56300;DHT22;42209;6.376;-10.782;2023-03-14T13:01:54;28.50;49.10
56300;DHT22;42209;6.376;-10.782;2023-03-14T13:07:33;28.60;49.10
56300;DHT22;42209;6.376;-10.782;2023-03-14T13:10:16;28.60;49.20
56300;DHT22;42209;6.376;-10.782;2023-03-14T13:15:34;28.60;49.00
56300;DHT22;42209;6.376;-10.782;2023-03-14T13:20:59;28.60;48.90
56300;DHT22;42209;6.376;-10.782;2023-03-14T13:23:32;28.60;48.80
56300;DHT22;42209;6.376;-10.782;2023-03-14T13:26:01;28.60;48.60
56300;DHT22;42209;6.376;-10.782;2023-03-14T13:28:30;28.60;48.70
56300;DHT22;42209;6.376;-10.782;2023-03-14T13:31:01;28.60;48.70
56300;DHT22;42209;6.376;-10.782;2023-03-14T13:33:30;28.60;48.90
56300;DHT22;42209;6.376;-10.782;2023-03-14T13:36:04;28.70;49.10
56300;DHT22;42209;6.376;-10.782;2023-03-14T13:38:35;28.70;49.30
56300;DHT22;42209;6.376;-10.782;2023-03-14T13:41:08;28.70;49.30
56300;DHT22;42209;6.376;-10.782;2023-03-14T13:43:40;28.60;49.20
56300;DHT22;42209;6.376;-10.782;2023-03-14T13:46:19;28.70;49.50
56300;DHT22;42209;6.376;-10.782;2023-03-14T13:49:23;28.70;49.50
56300;DHT22;42209;6.376;-10.782;2023-03-14T13:51:52;28.70;49.60
56300;DHT22;42209;6.376;-10.782;2023-03-14T13:54:22;28.70;49.60
56300;DHT22;42209;6.376;-10.782;2023-03-14T13:57:03;28.70;49.50
56300;DHT22;42209;6.376;-10.782;2023-03-14T13:59:33;28.70;49.40
56300;DHT22;42209;6.376;-10.782;2023-03-14T14:02:14;28.70;49.50
56300;DHT22;42209;6.376;-10.782;2023-03-14T14:04:46;28.70;49.10
56300;DHT22;42209;6.376;-10.782;2023-03-14T14:07:16;28.80;49.10
56300;DHT22;42209;6.376;-10.782;2023-03-14T14:09:50;28.70;48.50
56300;DHT22;42209;6.376;-10.782;2023-03-14T14:12:43;28.80;48.60
56300;DHT22;42209;6.376;-10.782;2023-03-14T14:15:28;28.80;48.50
56300;DHT22;42209;6.376;-10.782;2023-03-14T14:18:05;28.80;48.40
56300;DHT22;42209;6.376;-10.782;2023-03-14T14:20:38;28.70;48.50
56300;DHT22;42209;6.376;-10.782;2023-03-14T14:23:12;28.80;48.40
56300;DHT22;42209;6.376;-10.782;2023-03-14T14:25:42;28.80;48.40
56300;DHT22;42209;6.376;-10.782;2023-03-14T14:28:30;28.80;48.20
56300;DHT22;42209;6.376;-10.782;2023-03-14T14:31:22;28.80;47.90
56300;DHT22;42209;6.376;-10.782;2023-03-14T14:33:55;28.80;48.00
56300;DHT22;42209;6.376;-10.782;2023-03-14T14:39:00;28.80;47.80
56300;DHT22;42209;6.376;-10.782;2023-03-14T14:41:37;28.80;47.70
56300;DHT22;42209;6.376;-10.782;2023-03-14T14:44:10;28.90;47.90
56300;DHT22;42209;6.376;-10.782;2023-03-14T14:46:39;28.80;47.70
56300;DHT22;42209;6.376;-10.782;2023-03-14T14:49:14;28.80;47.70
56300;DHT22;42209;6.376;-10.782;2023-03-14T14:51:47;28.90;47.60
56300;DHT22;42209;6.376;-10.782;2023-03-14T14:54:18;28.80;47.60
56300;DHT22;42209;6.376;-10.782;2023-03-14T14:56:52;28.90;47.70
56300;DHT22;42209;6.376;-10.782;2023-03-14T14:59:24;28.90;47.60
56300;DHT22;42209;6.376;-10.782;2023-03-14T15:02:01;28.90;47.60
56300;DHT22;42209;6.376;-10.782;2023-03-14T15:04:31;28.90;47.50
56300;DHT22;42209;6.376;-10.782;2023-03-14T15:06:59;28.90;47.40
56300;DHT22;42209;6.376;-10.782;2023-03-14T15:09:27;28.90;47.20
56300;DHT22;42209;6.376;-10.782;2023-03-14T15:11:55;28.90;47.10
56300;DHT22;42209;6.376;-10.782;2023-03-14T15:14:24;28.90;47.30
56300;DHT22;42209;6.376;-10.782;2023-03-14T15:16:52;28.90;47.30
56300;DHT22;42209;6.376;-10.782;2023-03-14T15:19:24;28.90;47.20
56300;DHT22;42209;6.376;-10.782;2023-03-14T15:21:53;28.90;47.30
56300;DHT22;42209;6.376;-10.782;2023-03-14T15:24:21;29.00;47.40
56300;DHT22;42209;6.376;-10.782;2023-03-14T15:26:50;29.00;47.40
56300;DHT22;42209;6.376;-10.782;2023-03-14T15:29:19;29.00;47.40
56300;DHT22;42209;6.376;-10.782;2023-03-14T15:31:48;29.00;47.40
56300;DHT22;42209;6.376;-10.782;2023-03-14T15:34:16;29.00;47.30
56300;DHT22;42209;6.376;-10.782;2023-03-14T15:36:45;29.00;47.30
56300;DHT22;42209;6.376;-10.782;2023-03-14T15:39:13;29.00;47.20
56300;DHT22;42209;6.376;-10.782;2023-03-14T15:41:41;29.00;47.00
56300;DHT22;42209;6.376;-10.782;2023-03-14T15:44:10;29.10;47.10
56300;DHT22;42209;6.376;-10.782;2023-03-14T15:46:38;29.00;46.90
56300;DHT22;42209;6.376;-10.782;2023-03-14T15:49:08;29.00;46.60
56300;DHT22;42209;6.376;-10.782;2023-03-14T15:51:37;29.00;46.60
56300;DHT22;42209;6.376;-10.782;2023-03-14T15:54:06;29.10;46.50
56300;DHT22;42209;6.376;-10.782;2023-03-14T15:56:35;29.10;46.40
56300;DHT22;42209;6.376;-10.782;2023-03-14T15:59:07;29.10;46.20
56300;DHT22;42209;6.376;-10.782;2023-03-14T16:01:35;29.10;46.20
56300;DHT22;42209;6.376;-10.782;2023-03-14T16:04:03;29.10;46.10
56300;DHT22;42209;6.376;-10.782;2023-03-14T16:06:31;29.10;45.80
56300;DHT22;42209;6.376;-10.782;2023-03-14T16:09:01;29.10;45.70
56300;DHT22;42209;6.376;-10.782;2023-03-14T16:11:30;29.10;45.70
56300;DHT22;42209;6.376;-10.782;2023-03-14T16:13:58;29.20;45.40
56300;DHT22;42209;6.376;-10.782;2023-03-14T16:16:26;29.20;45.20
56300;DHT22;42209;6.376;-10.782;2023-03-14T16:18:54;29.20;45.00
56300;DHT22;42209;6.376;-10.782;2023-03-14T16:21:24;29.20;44.90
56300;DHT22;42209;6.376;-10.782;2023-03-14T16:23:52;29.20;44.50
56300;DHT22;42209;6.376;-10.782;2023-03-14T16:26:20;29.20;44.70
56300;DHT22;42209;6.376;-10.782;2023-03-14T16:28:48;29.20;44.40
56300;DHT22;42209;6.376;-10.782;2023-03-14T16:31:18;29.20;44.30
56300;DHT22;42209;6.376;-10.782;2023-03-14T16:33:47;29.20;44.30
56300;DHT22;42209;6.376;-10.782;2023-03-14T16:36:15;29.20;44.40
56300;DHT22;42209;6.376;-10.782;2023-03-14T16:38:44;29.20;44.20
56300;DHT22;42209;6.376;-10.782;2023-03-14T16:41:18;29.30;44.50
56300;DHT22;42209;6.376;-10.782;2023-03-14T16:43:47;29.30;44.10
56300;DHT22;42209;6.376;-10.782;2023-03-14T16:46:16;29.30;44.20
56300;DHT22;42209;6.376;-10.782;2023-03-14T16:48:45;29.30;44.00
56300;DHT22;42209;6.376;-10.782;2023-03-14T16:51:16;29.30;43.90
56300;DHT22;42209;6.376;-10.782;2023-03-14T16:53:44;29.30;43.80
56300;DHT22;42209;6.376;-10.782;2023-03-14T16:56:13;29.30;43.70
56300;DHT22;42209;6.376;-10.782;2023-03-14T16:58:42;29.30;43.50
56300;DHT22;42209;6.376;-10.782;2023-03-14T17:01:11;29.30;43.30
56300;DHT22;42209;6.376;-10.782;2023-03-14T17:03:42;29.30;43.50
56300;DHT22;42209;6.376;-10.782;2023-03-14T17:06:19;29.30;43.70
56300;DHT22;42209;6.376;-10.782;2023-03-14T17:08:48;29.30;43.50
56300;DHT22;42209;6.376;-10.782;2023-03-14T17:11:16;29.40;43.50
56300;DHT22;42209;6.376;-10.782;2023-03-14T17:13:45;29.30;43.20
56300;DHT22;42209;6.376;-10.782;2023-03-14T17:16:13;29.30;43.40
56300;DHT22;42209;6.376;-10.782;2023-03-14T17:18:42;29.40;43.40
56300;DHT22;42209;6.376;-10.782;2023-03-14T17:21:11;29.30;43.20